CheckWX is a tool to help pilots better visualize weather data.  It is not intended as a substitute for an official pre-flight weather briefing.

10:03:32 UTC

KRAC METAR
Batten International Airport
Racine, Wisconsin, USA
Current

11 mins ago

KRAC 260953Z AUTO 35017G30KT 10SM OVC013 M02/M06 A3009 RMK AO2 PK WND 01030/0947 SLP196 T10221056
Observed
Feb-26 @ 09:53 UTC
Wind
  • 350° at 17 KTS
  • Gusting to 30 KTS
Visibility
10 SM
Flight Rules
MVFR
Cloud Levels
  • Overcast at 1,300' AGL
Temperature
-2°C / 28°F
Dewpoint
-6°C / 21°F
Humidity
74%
Altimeter
30.09" Hg
Pressure
1018.92 hPa
Previous

41 mins ago

KRAC 260923Z AUTO 36017G28KT 10SM BKN014 BKN018 OVC023 M02/M05 A3009 RMK AO2 PK WND 35028/0915 T10171050
Observed
Feb-26 @ 09:23 UTC
Wind
  • 360° at 17 KTS
  • Gusting to 28 KTS
Visibility
10 SM
Flight Rules
MVFR
Cloud Levels
  • Broken at 1,400' AGL
  • Broken at 1,800' AGL
  • Overcast at 2,300' AGL
Temperature
-2°C / 28°F
Dewpoint
-5°C / 23°F
Humidity
80%
Altimeter
30.09" Hg
Pressure
1018.92 hPa
Previous

1 hour ago

KRAC 260853Z AUTO 36019G26KT 10SM BKN024 OVC034 M01/M04 A3010 RMK AO2 PK WND 04029/0801 SLP199 60000 T10061044 57010
Observed
Feb-26 @ 08:53 UTC
Wind
  • 360° at 19 KTS
  • Gusting to 26 KTS
Visibility
10 SM
Flight Rules
MVFR
Cloud Levels
  • Broken at 2,400' AGL
  • Overcast at 3,400' AGL
Temperature
-1°C / 30°F
Dewpoint
-4°C / 25°F
Humidity
80%
Altimeter
30.1" Hg
Pressure
1019.32 hPa